sensor_id;sensor_type;location;lat;lon;timestamp;P1;durP1;ratioP1;P2;durP2;ratioP2
23747;SDS011;12054;53.662;10.126;2023-04-24T00:01:36;6.28;;;4.35;;
23747;SDS011;12054;53.662;10.126;2023-04-24T00:04:01;5.20;;;4.70;;
23747;SDS011;12054;53.662;10.126;2023-04-24T00:06:29;5.38;;;4.57;;
23747;SDS011;12054;53.662;10.126;2023-04-24T00:08:58;6.38;;;4.72;;
23747;SDS011;12054;53.662;10.126;2023-04-24T00:11:25;8.20;;;4.45;;
23747;SDS011;12054;53.662;10.126;2023-04-24T00:13:51;6.70;;;5.07;;
23747;SDS011;12054;53.662;10.126;2023-04-24T00:16:16;5.75;;;5.13;;
23747;SDS011;12054;53.662;10.126;2023-04-24T00:18:41;6.38;;;5.00;;
23747;SDS011;12054;53.662;10.126;2023-04-24T00:21:07;5.65;;;4.50;;
23747;SDS011;12054;53.662;10.126;2023-04-24T00:23:32;5.93;;;5.18;;
23747;SDS011;12054;53.662;10.126;2023-04-24T00:25:58;6.25;;;5.28;;
23747;SDS011;12054;53.662;10.126;2023-04-24T00:28:23;6.75;;;5.47;;
23747;SDS011;12054;53.662;10.126;2023-04-24T00:30:49;6.15;;;5.18;;
23747;SDS011;12054;53.662;10.126;2023-04-24T00:33:15;7.55;;;5.75;;
23747;SDS011;12054;53.662;10.126;2023-04-24T00:35:40;6.53;;;5.50;;
23747;SDS011;12054;53.662;10.126;2023-04-24T00:38:06;6.63;;;5.60;;
23747;SDS011;12054;53.662;10.126;2023-04-24T00:40:32;7.68;;;5.78;;
23747;SDS011;12054;53.662;10.126;2023-04-24T00:42:57;8.05;;;5.82;;
23747;SDS011;12054;53.662;10.126;2023-04-24T00:45:23;7.35;;;6.20;;
23747;SDS011;12054;53.662;10.126;2023-04-24T00:47:48;7.50;;;5.18;;
23747;SDS011;12054;53.662;10.126;2023-04-24T00:50:17;7.88;;;5.95;;
23747;SDS011;12054;53.662;10.126;2023-04-24T00:52:44;8.48;;;6.30;;
23747;SDS011;12054;53.662;10.126;2023-04-24T00:55:10;6.75;;;6.00;;
23747;SDS011;12054;53.662;10.126;2023-04-24T00:57:35;6.13;;;5.50;;
23747;SDS011;12054;53.662;10.126;2023-04-24T01:00:02;7.53;;;6.35;;
23747;SDS011;12054;53.662;10.126;2023-04-24T01:02:30;9.07;;;6.15;;
23747;SDS011;12054;53.662;10.126;2023-04-24T01:04:59;6.80;;;6.05;;
23747;SDS011;12054;53.662;10.126;2023-04-24T01:07:25;7.05;;;6.35;;
23747;SDS011;12054;53.662;10.126;2023-04-24T01:09:53;8.55;;;6.43;;
23747;SDS011;12054;53.662;10.126;2023-04-24T01:12:19;8.02;;;6.53;;
23747;SDS011;12054;53.662;10.126;2023-04-24T01:14:45;6.85;;;6.15;;
23747;SDS011;12054;53.662;10.126;2023-04-24T01:17:11;8.30;;;6.63;;
23747;SDS011;12054;53.662;10.126;2023-04-24T01:19:36;8.98;;;6.93;;
23747;SDS011;12054;53.662;10.126;2023-04-24T01:22:02;7.53;;;6.47;;
23747;SDS011;12054;53.662;10.126;2023-04-24T01:24:29;7.40;;;6.38;;
23747;SDS011;12054;53.662;10.126;2023-04-24T01:26:55;8.25;;;6.15;;
23747;SDS011;12054;53.662;10.126;2023-04-24T01:29:21;8.75;;;6.45;;
23747;SDS011;12054;53.662;10.126;2023-04-24T01:31:47;8.80;;;6.95;;
23747;SDS011;12054;53.662;10.126;2023-04-24T01:34:13;9.13;;;6.40;;
23747;SDS011;12054;53.662;10.126;2023-04-24T01:36:39;6.35;;;5.72;;
23747;SDS011;12054;53.662;10.126;2023-04-24T01:39:06;9.25;;;5.93;;
23747;SDS011;12054;53.662;10.126;2023-04-24T01:41:31;7.15;;;6.15;;
23747;SDS011;12054;53.662;10.126;2023-04-24T01:43:57;7.38;;;6.18;;
23747;SDS011;12054;53.662;10.126;2023-04-24T01:46:24;8.30;;;6.07;;
23747;SDS011;12054;53.662;10.126;2023-04-24T01:48:50;6.32;;;5.72;;
23747;SDS011;12054;53.662;10.126;2023-04-24T01:51:16;9.18;;;5.55;;
23747;SDS011;12054;53.662;10.126;2023-04-24T01:53:42;6.95;;;5.75;;
23747;SDS011;12054;53.662;10.126;2023-04-24T01:56:07;6.13;;;4.78;;
23747;SDS011;12054;53.662;10.126;2023-04-24T01:58:33;6.43;;;5.45;;
23747;SDS011;12054;53.662;10.126;2023-04-24T02:00:59;7.15;;;5.13;;
23747;SDS011;12054;53.662;10.126;2023-04-24T02:03:25;7.07;;;5.50;;
23747;SDS011;12054;53.662;10.126;2023-04-24T02:05:51;5.80;;;4.75;;
23747;SDS011;12054;53.662;10.126;2023-04-24T02:08:17;5.57;;;4.70;;
23747;SDS011;12054;53.662;10.126;2023-04-24T02:10:42;5.72;;;4.75;;
23747;SDS011;12054;53.662;10.126;2023-04-24T02:13:08;4.60;;;4.10;;
23747;SDS011;12054;53.662;10.126;2023-04-24T02:15:33;5.07;;;4.25;;
23747;SDS011;12054;53.662;10.126;2023-04-24T02:17:59;4.55;;;4.03;;
23747;SDS011;12054;53.662;10.126;2023-04-24T02:20:24;4.55;;;4.15;;
23747;SDS011;12054;53.662;10.126;2023-04-24T02:22:50;4.43;;;4.03;;
23747;SDS011;12054;53.662;10.126;2023-04-24T02:25:15;4.70;;;3.90;;
23747;SDS011;12054;53.662;10.126;2023-04-24T02:27:41;4.32;;;3.90;;
23747;SDS011;12054;53.662;10.126;2023-04-24T02:30:06;4.28;;;3.75;;
23747;SDS011;12054;53.662;10.126;2023-04-24T02:32:33;4.32;;;3.67;;
23747;SDS011;12054;53.662;10.126;2023-04-24T02:34:59;5.03;;;4.00;;
23747;SDS011;12054;53.662;10.126;2023-04-24T02:37:24;4.18;;;3.60;;
23747;SDS011;12054;53.662;10.126;2023-04-24T02:39:50;5.88;;;3.97;;
23747;SDS011;12054;53.662;10.126;2023-04-24T02:42:15;3.90;;;3.50;;
23747;SDS011;12054;53.662;10.126;2023-04-24T02:44:40;5.05;;;3.90;;
23747;SDS011;12054;53.662;10.126;2023-04-24T02:47:06;4.80;;;3.58;;
23747;SDS011;12054;53.662;10.126;2023-04-24T02:49:32;4.95;;;3.80;;
23747;SDS011;12054;53.662;10.126;2023-04-24T02:51:58;5.03;;;3.92;;
23747;SDS011;12054;53.662;10.126;2023-04-24T02:54:23;4.55;;;3.60;;
23747;SDS011;12054;53.662;10.126;2023-04-24T02:56:49;5.45;;;4.25;;
23747;SDS011;12054;53.662;10.126;2023-04-24T02:59:14;5.15;;;3.90;;
23747;SDS011;12054;53.662;10.126;2023-04-24T03:01:40;4.43;;;4.03;;
23747;SDS011;12054;53.662;10.126;2023-04-24T03:04:05;4.55;;;3.45;;
23747;SDS011;12054;53.662;10.126;2023-04-24T03:06:31;4.55;;;3.28;;
23747;SDS011;12054;53.662;10.126;2023-04-24T03:08:57;4.30;;;3.58;;
23747;SDS011;12054;53.662;10.126;2023-04-24T03:11:23;3.80;;;3.40;;
23747;SDS011;12054;53.662;10.126;2023-04-24T03:13:48;3.22;;;2.92;;
23747;SDS011;12054;53.662;10.126;2023-04-24T03:16:14;4.63;;;3.17;;
23747;SDS011;12054;53.662;10.126;2023-04-24T03:18:39;4.72;;;3.08;;
23747;SDS011;12054;53.662;10.126;2023-04-24T03:21:05;3.30;;;2.70;;
23747;SDS011;12054;53.662;10.126;2023-04-24T03:23:31;3.97;;;2.90;;
23747;SDS011;12054;53.662;10.126;2023-04-24T03:25:56;4.43;;;3.25;;
23747;SDS011;12054;53.662;10.126;2023-04-24T03:28:21;2.92;;;2.60;;
23747;SDS011;12054;53.662;10.126;2023-04-24T03:30:47;2.88;;;2.35;;
23747;SDS011;12054;53.662;10.126;2023-04-24T03:33:13;2.58;;;2.25;;
23747;SDS011;12054;53.662;10.126;2023-04-24T03:35:38;3.10;;;2.13;;
23747;SDS011;12054;53.662;10.126;2023-04-24T03:38:04;3.92;;;2.50;;
23747;SDS011;12054;53.662;10.126;2023-04-24T03:40:29;4.03;;;2.33;;
23747;SDS011;12054;53.662;10.126;2023-04-24T03:42:55;2.40;;;2.20;;
23747;SDS011;12054;53.662;10.126;2023-04-24T03:45:20;2.78;;;2.45;;
23747;SDS011;12054;53.662;10.126;2023-04-24T03:47:46;2.42;;;2.17;;
23747;SDS011;12054;53.662;10.126;2023-04-24T03:50:12;3.35;;;2.00;;
23747;SDS011;12054;53.662;10.126;2023-04-24T03:52:37;2.70;;;1.73;;
23747;SDS011;12054;53.662;10.126;2023-04-24T03:55:03;2.60;;;1.80;;
23747;SDS011;12054;53.662;10.126;2023-04-24T03:57:29;2.13;;;1.75;;
23747;SDS011;12054;53.662;10.126;2023-04-24T03:59:54;2.05;;;1.80;;
23747;SDS011;12054;53.662;10.126;2023-04-24T04:02:20;2.53;;;2.10;;
23747;SDS011;12054;53.662;10.126;2023-04-24T04:04:45;2.40;;;1.90;;
23747;SDS011;12054;53.662;10.126;2023-04-24T04:07:11;3.72;;;2.03;;
23747;SDS011;12054;53.662;10.126;2023-04-24T04:09:37;2.50;;;2.30;;
23747;SDS011;12054;53.662;10.126;2023-04-24T04:12:03;2.00;;;1.73;;
23747;SDS011;12054;53.662;10.126;2023-04-24T04:14:28;2.85;;;1.88;;
23747;SDS011;12054;53.662;10.126;2023-04-24T04:16:54;3.47;;;2.20;;
23747;SDS011;12054;53.662;10.126;2023-04-24T04:19:20;2.45;;;2.05;;
23747;SDS011;12054;53.662;10.126;2023-04-24T04:21:45;2.35;;;2.15;;
23747;SDS011;12054;53.662;10.126;2023-04-24T04:24:11;2.83;;;2.00;;
23747;SDS011;12054;53.662;10.126;2023-04-24T04:26:37;2.42;;;2.00;;
23747;SDS011;12054;53.662;10.126;2023-04-24T04:29:03;2.20;;;2.00;;
23747;SDS011;12054;53.662;10.126;2023-04-24T04:31:29;2.17;;;1.88;;
23747;SDS011;12054;53.662;10.126;2023-04-24T04:33:55;2.28;;;1.92;;
23747;SDS011;12054;53.662;10.126;2023-04-24T04:36:21;2.47;;;1.85;;
23747;SDS011;12054;53.662;10.126;2023-04-24T04:38:46;2.47;;;1.90;;
23747;SDS011;12054;53.662;10.126;2023-04-24T04:41:12;2.50;;;1.80;;
23747;SDS011;12054;53.662;10.126;2023-04-24T04:43:37;2.17;;;1.73;;
23747;SDS011;12054;53.662;10.126;2023-04-24T04:46:04;1.85;;;1.70;;
23747;SDS011;12054;53.662;10.126;2023-04-24T04:48:30;2.03;;;1.80;;
23747;SDS011;12054;53.662;10.126;2023-04-24T04:50:56;2.00;;;1.80;;
23747;SDS011;12054;53.662;10.126;2023-04-24T04:53:22;2.05;;;1.67;;
23747;SDS011;12054;53.662;10.126;2023-04-24T04:55:47;2.05;;;1.70;;
23747;SDS011;12054;53.662;10.126;2023-04-24T04:58:13;1.60;;;1.42;;
23747;SDS011;12054;53.662;10.126;2023-04-24T05:00:38;1.48;;;1.38;;
23747;SDS011;12054;53.662;10.126;2023-04-24T05:03:04;1.63;;;1.48;;
23747;SDS011;12054;53.662;10.126;2023-04-24T05:05:30;1.65;;;1.50;;
23747;SDS011;12054;53.662;10.126;2023-04-24T05:07:55;2.65;;;1.60;;
23747;SDS011;12054;53.662;10.126;2023-04-24T05:10:21;1.65;;;1.48;;
23747;SDS011;12054;53.662;10.126;2023-04-24T05:12:46;1.70;;;1.60;;
23747;SDS011;12054;53.662;10.126;2023-04-24T05:15:13;1.40;;;1.30;;
23747;SDS011;12054;53.662;10.126;2023-04-24T05:17:38;1.98;;;1.38;;
23747;SDS011;12054;53.662;10.126;2023-04-24T05:20:05;1.30;;;1.20;;
23747;SDS011;12054;53.662;10.126;2023-04-24T05:22:32;1.92;;;1.45;;
23747;SDS011;12054;53.662;10.126;2023-04-24T05:24:57;2.13;;;1.17;;
23747;SDS011;12054;53.662;10.126;2023-04-24T05:27:23;1.42;;;1.30;;
23747;SDS011;12054;53.662;10.126;2023-04-24T05:29:49;1.77;;;1.30;;
23747;SDS011;12054;53.662;10.126;2023-04-24T05:32:15;2.13;;;1.30;;
23747;SDS011;12054;53.662;10.126;2023-04-24T05:34:40;1.58;;;1.23;;
23747;SDS011;12054;53.662;10.126;2023-04-24T05:37:06;1.20;;;1.10;;
23747;SDS011;12054;53.662;10.126;2023-04-24T05:39:33;1.50;;;1.10;;
23747;SDS011;12054;53.662;10.126;2023-04-24T05:42:00;2.42;;;1.20;;
23747;SDS011;12054;53.662;10.126;2023-04-24T05:44:26;1.45;;;0.90;;
23747;SDS011;12054;53.662;10.126;2023-04-24T05:46:51;1.77;;;0.95;;
23747;SDS011;12054;53.662;10.126;2023-04-24T05:49:17;1.38;;;1.00;;
23747;SDS011;12054;53.662;10.126;2023-04-24T05:51:42;1.20;;;1.10;;
23747;SDS011;12054;53.662;10.126;2023-04-24T05:54:08;0.90;;;0.90;;
23747;SDS011;12054;53.662;10.126;2023-04-24T05:56:33;1.90;;;1.10;;
23747;SDS011;12054;53.662;10.126;2023-04-24T05:58:59;1.27;;;1.13;;
23747;SDS011;12054;53.662;10.126;2023-04-24T06:01:25;2.10;;;1.42;;
23747;SDS011;12054;53.662;10.126;2023-04-24T06:03:50;1.48;;;1.00;;
23747;SDS011;12054;53.662;10.126;2023-04-24T06:06:16;1.90;;;1.20;;
23747;SDS011;12054;53.662;10.126;2023-04-24T06:08:41;1.75;;;1.30;;
23747;SDS011;12054;53.662;10.126;2023-04-24T06:11:09;1.85;;;1.48;;
23747;SDS011;12054;53.662;10.126;2023-04-24T06:13:34;2.10;;;1.40;;
23747;SDS011;12054;53.662;10.126;2023-04-24T06:16:00;1.63;;;1.45;;
23747;SDS011;12054;53.662;10.126;2023-04-24T06:18:25;2.45;;;1.55;;
23747;SDS011;12054;53.662;10.126;2023-04-24T06:20:51;2.03;;;1.38;;
23747;SDS011;12054;53.662;10.126;2023-04-24T06:23:16;1.65;;;1.48;;
23747;SDS011;12054;53.662;10.126;2023-04-24T06:25:42;1.60;;;1.50;;
23747;SDS011;12054;53.662;10.126;2023-04-24T06:28:07;1.60;;;1.50;;
23747;SDS011;12054;53.662;10.126;2023-04-24T06:30:33;1.58;;;1.33;;
23747;SDS011;12054;53.662;10.126;2023-04-24T06:32:58;1.35;;;1.25;;
23747;SDS011;12054;53.662;10.126;2023-04-24T06:35:24;1.70;;;1.50;;
23747;SDS011;12054;53.662;10.126;2023-04-24T06:37:49;1.30;;;1.20;;
23747;SDS011;12054;53.662;10.126;2023-04-24T06:40:15;1.83;;;1.40;;
23747;SDS011;12054;53.662;10.126;2023-04-24T06:42:43;1.88;;;1.48;;
23747;SDS011;12054;53.662;10.126;2023-04-24T06:45:09;1.90;;;1.42;;
23747;SDS011;12054;53.662;10.126;2023-04-24T06:47:34;1.55;;;1.20;;
23747;SDS011;12054;53.662;10.126;2023-04-24T06:50:01;1.90;;;1.08;;
23747;SDS011;12054;53.662;10.126;2023-04-24T06:52:26;2.47;;;1.30;;
23747;SDS011;12054;53.662;10.126;2023-04-24T06:54:52;1.55;;;1.40;;
23747;SDS011;12054;53.662;10.126;2023-04-24T06:57:24;2.38;;;1.48;;
23747;SDS011;12054;53.662;10.126;2023-04-24T06:59:50;1.95;;;1.23;;
23747;SDS011;12054;53.662;10.126;2023-04-24T07:02:15;2.45;;;1.33;;
23747;SDS011;12054;53.662;10.126;2023-04-24T07:04:41;1.35;;;1.20;;
23747;SDS011;12054;53.662;10.126;2023-04-24T07:07:06;1.27;;;1.17;;
23747;SDS011;12054;53.662;10.126;2023-04-24T07:09:34;1.70;;;1.35;;
23747;SDS011;12054;53.662;10.126;2023-04-24T07:12:03;1.55;;;1.45;;
23747;SDS011;12054;53.662;10.126;2023-04-24T07:14:28;2.25;;;1.42;;
23747;SDS011;12054;53.662;10.126;2023-04-24T07:16:54;2.28;;;1.63;;
23747;SDS011;12054;53.662;10.126;2023-04-24T07:19:19;1.65;;;1.55;;
23747;SDS011;12054;53.662;10.126;2023-04-24T07:21:45;1.92;;;1.60;;
23747;SDS011;12054;53.662;10.126;2023-04-24T07:24:10;1.67;;;1.42;;
23747;SDS011;12054;53.662;10.126;2023-04-24T07:26:37;1.60;;;1.50;;
23747;SDS011;12054;53.662;10.126;2023-04-24T07:29:04;2.78;;;1.60;;
23747;SDS011;12054;53.662;10.126;2023-04-24T07:31:30;2.13;;;1.92;;
23747;SDS011;12054;53.662;10.126;2023-04-24T07:33:55;2.28;;;1.95;;
23747;SDS011;12054;53.662;10.126;2023-04-24T07:36:22;2.17;;;2.00;;
23747;SDS011;12054;53.662;10.126;2023-04-24T07:38:49;2.40;;;2.20;;
23747;SDS011;12054;53.662;10.126;2023-04-24T07:41:14;2.65;;;2.20;;
23747;SDS011;12054;53.662;10.126;2023-04-24T07:43:40;2.33;;;2.13;;
23747;SDS011;12054;53.662;10.126;2023-04-24T07:46:06;3.17;;;2.38;;
23747;SDS011;12054;53.662;10.126;2023-04-24T07:48:32;2.50;;;2.30;;
23747;SDS011;12054;53.662;10.126;2023-04-24T07:50:58;2.67;;;2.30;;
23747;SDS011;12054;53.662;10.126;2023-04-24T07:53:24;3.55;;;2.40;;
23747;SDS011;12054;53.662;10.126;2023-04-24T07:55:49;2.20;;;2.00;;
23747;SDS011;12054;53.662;10.126;2023-04-24T07:58:15;2.50;;;2.30;;
23747;SDS011;12054;53.662;10.126;2023-04-24T08:00:41;3.67;;;2.83;;
23747;SDS011;12054;53.662;10.126;2023-04-24T08:03:06;2.72;;;2.53;;
23747;SDS011;12054;53.662;10.126;2023-04-24T08:05:32;2.63;;;2.42;;
23747;SDS011;12054;53.662;10.126;2023-04-24T08:07:58;2.63;;;2.42;;
23747;SDS011;12054;53.662;10.126;2023-04-24T08:10:23;3.67;;;3.10;;
23747;SDS011;12054;53.662;10.126;2023-04-24T08:12:50;3.00;;;2.80;;
23747;SDS011;12054;53.662;10.126;2023-04-24T08:15:15;3.42;;;2.97;;
23747;SDS011;12054;53.662;10.126;2023-04-24T08:17:41;3.45;;;3.15;;
23747;SDS011;12054;53.662;10.126;2023-04-24T08:20:07;3.45;;;3.15;;
23747;SDS011;12054;53.662;10.126;2023-04-24T08:22:38;4.72;;;3.63;;
23747;SDS011;12054;53.662;10.126;2023-04-24T08:25:04;3.97;;;3.67;;
23747;SDS011;12054;53.662;10.126;2023-04-24T08:27:30;3.67;;;3.33;;
23747;SDS011;12054;53.662;10.126;2023-04-24T08:29:56;3.33;;;3.03;;
23747;SDS011;12054;53.662;10.126;2023-04-24T08:32:22;4.03;;;3.65;;
23747;SDS011;12054;53.662;10.126;2023-04-24T08:34:48;3.85;;;3.45;;
23747;SDS011;12054;53.662;10.126;2023-04-24T08:37:13;4.55;;;4.15;;
23747;SDS011;12054;53.662;10.126;2023-04-24T08:39:38;7.50;;;3.95;;
23747;SDS011;12054;53.662;10.126;2023-04-24T08:42:04;5.13;;;3.78;;
23747;SDS011;12054;53.662;10.126;2023-04-24T08:44:32;4.65;;;4.10;;
23747;SDS011;12054;53.662;10.126;2023-04-24T08:46:59;4.22;;;3.83;;
23747;SDS011;12054;53.662;10.126;2023-04-24T08:49:26;4.72;;;3.63;;
23747;SDS011;12054;53.662;10.126;2023-04-24T08:51:53;4.32;;;3.47;;
23747;SDS011;12054;53.662;10.126;2023-04-24T08:54:19;3.53;;;3.22;;
23747;SDS011;12054;53.662;10.126;2023-04-24T08:56:46;4.10;;;3.00;;
23747;SDS011;12054;53.662;10.126;2023-04-24T08:59:14;6.47;;;3.55;;
23747;SDS011;12054;53.662;10.126;2023-04-24T09:01:40;3.88;;;3.47;;
23747;SDS011;12054;53.662;10.126;2023-04-24T09:04:08;5.30;;;4.00;;
23747;SDS011;12054;53.662;10.126;2023-04-24T09:06:38;4.20;;;3.80;;
23747;SDS011;12054;53.662;10.126;2023-04-24T09:09:04;5.00;;;4.50;;
23747;SDS011;12054;53.662;10.126;2023-04-24T09:11:31;4.28;;;3.80;;
23747;SDS011;12054;53.662;10.126;2023-04-24T09:13:59;4.20;;;3.80;;
23747;SDS011;12054;53.662;10.126;2023-04-24T09:16:26;9.02;;;4.30;;
23747;SDS011;12054;53.662;10.126;2023-04-24T09:18:51;6.38;;;4.95;;
23747;SDS011;12054;53.662;10.126;2023-04-24T09:21:19;5.03;;;4.18;;
23747;SDS011;12054;53.662;10.126;2023-04-24T09:23:46;5.38;;;4.90;;
23747;SDS011;12054;53.662;10.126;2023-04-24T09:26:12;5.13;;;4.63;;
23747;SDS011;12054;53.662;10.126;2023-04-24T09:28:40;5.05;;;4.53;;
23747;SDS011;12054;53.662;10.126;2023-04-24T09:31:11;5.55;;;5.03;;
23747;SDS011;12054;53.662;10.126;2023-04-24T09:33:39;4.80;;;4.28;;
23747;SDS011;12054;53.662;10.126;2023-04-24T09:36:05;5.38;;;4.65;;
23747;SDS011;12054;53.662;10.126;2023-04-24T09:38:32;5.43;;;4.45;;
23747;SDS011;12054;53.662;10.126;2023-04-24T09:40:59;4.80;;;4.18;;
23747;SDS011;12054;53.662;10.126;2023-04-24T09:43:27;5.18;;;4.50;;
23747;SDS011;12054;53.662;10.126;2023-04-24T09:45:55;4.32;;;3.92;;
23747;SDS011;12054;53.662;10.126;2023-04-24T09:48:31;4.60;;;4.20;;
23747;SDS011;12054;53.662;10.126;2023-04-24T09:50:58;6.10;;;4.47;;
23747;SDS011;12054;53.662;10.126;2023-04-24T09:53:24;5.35;;;4.68;;
23747;SDS011;12054;53.662;10.126;2023-04-24T09:55:51;4.93;;;4.53;;
23747;SDS011;12054;53.662;10.126;2023-04-24T09:58:18;5.00;;;4.50;;
23747;SDS011;12054;53.662;10.126;2023-04-24T10:00:49;5.25;;;3.97;;
23747;SDS011;12054;53.662;10.126;2023-04-24T10:03:17;5.00;;;4.50;;
23747;SDS011;12054;53.662;10.126;2023-04-24T10:05:44;4.88;;;4.47;;
23747;SDS011;12054;53.662;10.126;2023-04-24T10:08:11;6.07;;;5.30;;
23747;SDS011;12054;53.662;10.126;2023-04-24T10:10:38;6.78;;;4.70;;
23747;SDS011;12054;53.662;10.126;2023-04-24T10:13:09;5.53;;;4.93;;
23747;SDS011;12054;53.662;10.126;2023-04-24T10:15:36;6.40;;;4.78;;
23747;SDS011;12054;53.662;10.126;2023-04-24T10:18:04;5.65;;;5.05;;
23747;SDS011;12054;53.662;10.126;2023-04-24T10:20:31;7.25;;;5.20;;
23747;SDS011;12054;53.662;10.126;2023-04-24T10:22:57;6.78;;;5.78;;
23747;SDS011;12054;53.662;10.126;2023-04-24T10:25:24;5.55;;;5.05;;
23747;SDS011;12054;53.662;10.126;2023-04-24T10:27:52;5.35;;;4.85;;
23747;SDS011;12054;53.662;10.126;2023-04-24T10:30:22;5.97;;;5.13;;
23747;SDS011;12054;53.662;10.126;2023-04-24T10:32:48;6.13;;;5.53;;
23747;SDS011;12054;53.662;10.126;2023-04-24T10:35:14;6.85;;;5.40;;
23747;SDS011;12054;53.662;10.126;2023-04-24T10:37:42;8.07;;;5.80;;
23747;SDS011;12054;53.662;10.126;2023-04-24T10:40:25;7.97;;;6.55;;
23747;SDS011;12054;53.662;10.126;2023-04-24T10:42:52;8.63;;;6.78;;
23747;SDS011;12054;53.662;10.126;2023-04-24T10:45:21;8.02;;;6.93;;
23747;SDS011;12054;53.662;10.126;2023-04-24T10:47:51;9.02;;;7.18;;
23747;SDS011;12054;53.662;10.126;2023-04-24T10:50:28;8.65;;;5.68;;
23747;SDS011;12054;53.662;10.126;2023-04-24T10:53:04;9.00;;;6.90;;
23747;SDS011;12054;53.662;10.126;2023-04-24T10:55:41;8.90;;;7.10;;
23747;SDS011;12054;53.662;10.126;2023-04-24T10:58:23;10.25;;;7.60;;
23747;SDS011;12054;53.662;10.126;2023-04-24T11:00:59;8.35;;;7.00;;
23747;SDS011;12054;53.662;10.126;2023-04-24T11:03:26;8.43;;;7.45;;
23747;SDS011;12054;53.662;10.126;2023-04-24T11:06:00;9.65;;;7.22;;
23747;SDS011;12054;53.662;10.126;2023-04-24T11:11:16;8.40;;;6.57;;
23747;SDS011;12054;53.662;10.126;2023-04-24T11:29:41;12.77;;;8.13;;
23747;SDS011;12054;53.662;10.126;2023-04-24T11:34:53;14.23;;;8.13;;
23747;SDS011;12054;53.662;10.126;2023-04-24T11:37:27;8.77;;;7.80;;
23747;SDS011;12054;53.662;10.126;2023-04-24T11:39:55;11.98;;;8.80;;
23747;SDS011;12054;53.662;10.126;2023-04-24T11:42:22;10.32;;;7.85;;
23747;SDS011;12054;53.662;10.126;2023-04-24T11:44:49;8.80;;;7.38;;
23747;SDS011;12054;53.662;10.126;2023-04-24T11:47:16;11.20;;;8.25;;
23747;SDS011;12054;53.662;10.126;2023-04-24T11:49:42;10.52;;;7.72;;
23747;SDS011;12054;53.662;10.126;2023-04-24T11:52:11;12.23;;;7.68;;
23747;SDS011;12054;53.662;10.126;2023-04-24T11:54:46;9.18;;;7.82;;
23747;SDS011;12054;53.662;10.126;2023-04-24T11:57:14;10.90;;;7.55;;
23747;SDS011;12054;53.662;10.126;2023-04-24T11:59:39;9.63;;;6.97;;
23747;SDS011;12054;53.662;10.126;2023-04-24T12:02:08;9.80;;;7.60;;
23747;SDS011;12054;53.662;10.126;2023-04-24T12:04:39;10.18;;;7.05;;
23747;SDS011;12054;53.662;10.126;2023-04-24T12:07:07;10.63;;;7.43;;
23747;SDS011;12054;53.662;10.126;2023-04-24T12:09:46;11.10;;;7.28;;
23747;SDS011;12054;53.662;10.126;2023-04-24T12:12:18;7.45;;;6.55;;
23747;SDS011;12054;53.662;10.126;2023-04-24T12:14:48;8.20;;;6.15;;
23747;SDS011;12054;53.662;10.126;2023-04-24T12:17:23;5.90;;;5.22;;
23747;SDS011;12054;53.662;10.126;2023-04-24T12:19:56;9.73;;;5.00;;
23747;SDS011;12054;53.662;10.126;2023-04-24T12:22:27;9.73;;;5.88;;
23747;SDS011;12054;53.662;10.126;2023-04-24T12:24:57;7.20;;;5.82;;
23747;SDS011;12054;53.662;10.126;2023-04-24T12:27:30;6.78;;;5.47;;
23747;SDS011;12054;53.662;10.126;2023-04-24T12:29:59;8.13;;;5.63;;
23747;SDS011;12054;53.662;10.126;2023-04-24T12:32:28;7.13;;;5.65;;
23747;SDS011;12054;53.662;10.126;2023-04-24T12:34:54;6.80;;;5.65;;
23747;SDS011;12054;53.662;10.126;2023-04-24T12:37:20;8.25;;;5.05;;
23747;SDS011;12054;53.662;10.126;2023-04-24T12:40:07;8.45;;;5.60;;
23747;SDS011;12054;53.662;10.126;2023-04-24T12:42:35;6.97;;;5.50;;
23747;SDS011;12054;53.662;10.126;2023-04-24T12:45:05;10.43;;;6.03;;
23747;SDS011;12054;53.662;10.126;2023-04-24T12:47:32;6.45;;;5.82;;
23747;SDS011;12054;53.662;10.126;2023-04-24T12:49:59;6.28;;;5.28;;
23747;SDS011;12054;53.662;10.126;2023-04-24T12:52:25;6.72;;;5.78;;
23747;SDS011;12054;53.662;10.126;2023-04-24T12:54:54;7.30;;;5.60;;
23747;SDS011;12054;53.662;10.126;2023-04-24T12:57:28;6.78;;;5.43;;
23747;SDS011;12054;53.662;10.126;2023-04-24T12:59:58;6.45;;;5.63;;
23747;SDS011;12054;53.662;10.126;2023-04-24T13:02:24;7.35;;;5.30;;
23747;SDS011;12054;53.662;10.126;2023-04-24T13:04:52;6.28;;;5.57;;
23747;SDS011;12054;53.662;10.126;2023-04-24T13:07:18;7.03;;;6.18;;
23747;SDS011;12054;53.662;10.126;2023-04-24T13:09:44;6.43;;;5.22;;
23747;SDS011;12054;53.662;10.126;2023-04-24T13:12:12;6.47;;;5.20;;
23747;SDS011;12054;53.662;10.126;2023-04-24T13:14:41;7.55;;;5.70;;
23747;SDS011;12054;53.662;10.126;2023-04-24T13:17:07;7.53;;;5.53;;
23747;SDS011;12054;53.662;10.126;2023-04-24T13:19:40;6.80;;;6.10;;
23747;SDS011;12054;53.662;10.126;2023-04-24T13:22:10;9.35;;;6.70;;
23747;SDS011;12054;53.662;10.126;2023-04-24T13:24:43;7.50;;;6.00;;
23747;SDS011;12054;53.662;10.126;2023-04-24T13:27:12;7.88;;;6.70;;
23747;SDS011;12054;53.662;10.126;2023-04-24T13:29:54;9.20;;;6.47;;
23747;SDS011;12054;53.662;10.126;2023-04-24T13:32:20;10.15;;;6.63;;
23747;SDS011;12054;53.662;10.126;2023-04-24T13:34:48;8.55;;;6.90;;
23747;SDS011;12054;53.662;10.126;2023-04-24T13:37:14;8.50;;;6.60;;
23747;SDS011;12054;53.662;10.126;2023-04-24T13:39:42;6.60;;;5.57;;
23747;SDS011;12054;53.662;10.126;2023-04-24T13:42:11;7.03;;;6.32;;
23747;SDS011;12054;53.662;10.126;2023-04-24T13:44:37;7.72;;;6.55;;
23747;SDS011;12054;53.662;10.126;2023-04-24T13:47:06;7.18;;;6.07;;
23747;SDS011;12054;53.662;10.126;2023-04-24T13:49:32;7.63;;;6.18;;
23747;SDS011;12054;53.662;10.126;2023-04-24T13:51:59;7.88;;;6.35;;
23747;SDS011;12054;53.662;10.126;2023-04-24T13:54:27;7.95;;;5.72;;
23747;SDS011;12054;53.662;10.126;2023-04-24T13:56:57;8.60;;;5.90;;
23747;SDS011;12054;53.662;10.126;2023-04-24T13:59:23;7.85;;;6.00;;
23747;SDS011;12054;53.662;10.126;2023-04-24T14:01:49;8.52;;;6.18;;
23747;SDS011;12054;53.662;10.126;2023-04-24T14:04:16;7.15;;;5.97;;
23747;SDS011;12054;53.662;10.126;2023-04-24T14:06:45;6.90;;;5.68;;
23747;SDS011;12054;53.662;10.126;2023-04-24T14:09:27;6.00;;;5.40;;
23747;SDS011;12054;53.662;10.126;2023-04-24T14:11:55;6.18;;;5.57;;
23747;SDS011;12054;53.662;10.126;2023-04-24T14:14:23;5.97;;;5.18;;
23747;SDS011;12054;53.662;10.126;2023-04-24T14:16:49;5.82;;;4.75;;
23747;SDS011;12054;53.662;10.126;2023-04-24T14:19:17;6.55;;;4.90;;
23747;SDS011;12054;53.662;10.126;2023-04-24T14:21:51;6.88;;;5.45;;
23747;SDS011;12054;53.662;10.126;2023-04-24T14:24:18;5.65;;;5.05;;
23747;SDS011;12054;53.662;10.126;2023-04-24T14:26:44;6.25;;;5.10;;
23747;SDS011;12054;53.662;10.126;2023-04-24T14:29:09;6.15;;;5.55;;
23747;SDS011;12054;53.662;10.126;2023-04-24T14:31:35;6.18;;;5.57;;
23747;SDS011;12054;53.662;10.126;2023-04-24T14:34:01;5.70;;;5.10;;
23747;SDS011;12054;53.662;10.126;2023-04-24T14:36:27;5.85;;;5.32;;
23747;SDS011;12054;53.662;10.126;2023-04-24T14:38:53;6.82;;;5.93;;
23747;SDS011;12054;53.662;10.126;2023-04-24T14:41:18;5.70;;;5.07;;
23747;SDS011;12054;53.662;10.126;2023-04-24T14:43:44;5.47;;;4.72;;
23747;SDS011;12054;53.662;10.126;2023-04-24T14:46:09;5.38;;;4.65;;
23747;SDS011;12054;53.662;10.126;2023-04-24T14:48:35;5.03;;;3.97;;
23747;SDS011;12054;53.662;10.126;2023-04-24T14:51:00;5.47;;;4.63;;
23747;SDS011;12054;53.662;10.126;2023-04-24T14:53:26;4.93;;;4.45;;